createdAt,value
2019-05-16T00:00:53.863Z,7.92
2019-05-16T00:01:53.850Z,7.89
2019-05-16T00:02:53.849Z,7.89
2019-05-16T00:03:53.828Z,7.89
2019-05-16T00:04:53.837Z,7.93
2019-05-16T00:05:54.618Z,7.89
2019-05-16T00:06:53.805Z,7.82
2019-05-16T00:07:53.790Z,7.85
2019-05-16T00:08:53.774Z,7.87
2019-05-16T00:09:53.789Z,7.85
2019-05-16T00:10:53.757Z,7.71
2019-05-16T00:11:53.757Z,7.75
2019-05-16T00:12:53.733Z,7.71
2019-05-16T00:13:53.723Z,7.75
2019-05-16T00:14:53.711Z,7.74
2019-05-16T00:15:53.727Z,7.74
2019-05-16T00:16:53.693Z,7.74
2019-05-16T00:17:53.680Z,7.74
2019-05-16T00:18:53.668Z,7.71
2019-05-16T00:19:53.657Z,7.74
2019-05-16T00:20:53.678Z,7.71
2019-05-16T00:21:53.636Z,7.71
2019-05-16T00:22:53.626Z,7.74
2019-05-16T00:23:53.621Z,7.72
2019-05-16T00:24:53.620Z,7.69
2019-05-16T00:25:53.594Z,7.71
2019-05-16T00:26:53.606Z,7.78
2019-05-16T00:27:53.573Z,7.74
2019-05-16T00:28:53.571Z,7.74
2019-05-16T00:29:53.563Z,7.74
2019-05-16T00:30:53.541Z,7.75
2019-05-16T00:31:53.552Z,7.71
2019-05-16T00:32:53.520Z,7.78
2019-05-16T00:33:53.521Z,7.69
2019-05-16T00:34:53.499Z,7.74
2019-05-16T00:36:02.464Z,7.74
2019-05-16T00:36:54.496Z,7.72
2019-05-16T00:37:53.468Z,7.77
2019-05-16T00:38:53.467Z,7.66
2019-05-16T00:39:53.448Z,7.71
2019-05-16T00:40:53.437Z,7.67
2019-05-16T00:41:53.444Z,7.71
2019-05-16T00:42:53.430Z,7.74
2019-05-16T00:43:53.406Z,7.74
2019-05-16T00:44:53.395Z,7.77
2019-05-16T00:45:53.384Z,7.69
2019-05-16T00:46:53.392Z,7.72
2019-05-16T00:47:53.373Z,7.71
2019-05-16T00:48:53.353Z,7.71
2019-05-16T00:49:53.343Z,7.69
2019-05-16T00:50:53.332Z,7.69
2019-05-16T00:51:53.353Z,7.63
2019-05-16T00:52:53.311Z,7.67
2019-05-16T00:53:53.302Z,7.62
2019-05-16T00:54:53.288Z,7.63
2019-05-16T00:55:53.278Z,7.58
2019-05-16T00:56:53.278Z,7.69
2019-05-16T00:57:53.276Z,7.67
2019-05-16T00:58:53.249Z,7.60
2019-05-16T00:59:53.236Z,7.67
2019-05-16T01:00:53.236Z,7.63
2019-05-16T01:01:53.236Z,7.69
2019-05-16T01:02:53.230Z,7.60
2019-05-16T01:03:53.196Z,7.66
2019-05-16T01:04:53.186Z,7.58
2019-05-16T01:05:53.183Z,7.55
2019-05-16T01:06:53.162Z,7.55
2019-05-16T01:07:53.153Z,7.44
2019-05-16T01:08:53.162Z,7.52
2019-05-16T01:09:53.136Z,7.56
2019-05-16T01:10:53.122Z,7.50
2019-05-16T01:11:53.113Z,7.55
2019-05-16T01:12:53.100Z,7.53
2019-05-16T01:13:53.108Z,7.56
2019-05-16T01:14:53.089Z,7.56
2019-05-16T01:15:53.066Z,7.55
2019-05-16T01:16:53.059Z,7.50
2019-05-16T01:17:53.046Z,7.59
2019-05-16T01:18:53.066Z,7.55
2019-05-16T01:19:53.024Z,7.56
2019-05-16T01:20:53.019Z,7.53
2019-05-16T01:21:53.004Z,7.53
2019-05-16T01:22:52.994Z,7.49
2019-05-16T01:23:53.018Z,7.50
2019-05-16T01:24:52.978Z,7.49
2019-05-16T01:25:52.966Z,7.53
2019-05-16T01:26:52.952Z,7.50
2019-05-16T01:27:52.952Z,7.44
2019-05-16T01:28:52.956Z,7.42
2019-05-16T01:29:52.920Z,7.52
2019-05-16T01:30:52.914Z,7.44
2019-05-16T01:31:52.899Z,7.45
2019-05-16T01:32:52.902Z,7.44
2019-05-16T01:33:52.897Z,7.50
2019-05-16T01:34:52.873Z,7.58
2019-05-16T01:35:52.856Z,7.53
2019-05-16T01:36:52.853Z,7.50
2019-05-16T01:37:52.836Z,7.53
2019-05-16T01:38:52.848Z,7.49
2019-05-16T01:39:52.814Z,7.52
2019-05-16T01:40:52.804Z,7.50
2019-05-16T01:41:52.806Z,7.50
2019-05-16T01:42:52.786Z,7.55
2019-05-16T01:43:52.818Z,7.47
2019-05-16T01:44:52.765Z,7.56
2019-05-16T01:45:52.763Z,7.55
2019-05-16T01:46:52.743Z,7.59
2019-05-16T01:47:52.730Z,7.59
2019-05-16T01:48:52.719Z,7.69
2019-05-16T01:49:52.731Z,7.56
2019-05-16T01:50:52.714Z,7.60
2019-05-16T01:51:52.689Z,7.66
2019-05-16T01:52:52.681Z,7.59
2019-05-16T01:53:52.669Z,7.60
2019-05-16T01:54:52.687Z,7.62
2019-05-16T01:55:52.647Z,7.55
2019-05-16T01:56:52.637Z,7.66
2019-05-16T01:57:52.626Z,7.66
2019-05-16T01:58:52.616Z,7.69
2019-05-16T01:59:52.634Z,7.72
2019-05-16T02:01:11.199Z,7.66
2019-05-16T02:01:53.586Z,7.69
2019-05-16T02:02:52.573Z,7.69
2019-05-16T02:03:52.571Z,7.63
2019-05-16T02:04:52.580Z,7.60
2019-05-16T02:05:52.542Z,7.67
2019-05-16T02:06:54.865Z,7.67
2019-05-16T02:07:52.523Z,7.60
2019-05-16T02:08:52.523Z,7.71
2019-05-16T02:09:52.500Z,7.74
2019-05-16T02:10:52.510Z,7.67
2019-05-16T02:11:52.479Z,7.63
2019-05-16T02:12:52.483Z,7.69
2019-05-16T02:13:52.464Z,7.69
2019-05-16T02:14:52.448Z,7.62
2019-05-16T02:15:52.456Z,7.69
2019-05-16T02:16:52.427Z,7.66
2019-05-16T02:17:52.428Z,7.66
2019-05-16T02:18:52.410Z,7.63
2019-05-16T02:19:52.397Z,7.60
2019-05-16T02:20:52.413Z,7.67
2019-05-16T02:21:52.385Z,7.62
2019-05-16T02:22:52.364Z,7.67
2019-05-16T02:23:52.372Z,7.66
2019-05-16T02:24:52.343Z,7.69
2019-05-16T02:25:52.334Z,7.63
2019-05-16T02:26:52.638Z,7.72
2019-05-16T02:27:52.312Z,7.77
2019-05-16T02:28:52.303Z,7.69
2019-05-16T02:30:00.092Z,7.63
2019-05-16T02:30:52.311Z,7.77
2019-05-16T02:31:52.305Z,7.72
2019-05-16T02:32:52.659Z,7.69
2019-05-16T02:33:52.262Z,7.69
2019-05-16T02:34:52.243Z,7.74
2019-05-16T02:35:55.544Z,7.72
2019-05-16T02:37:10.654Z,7.79
2019-05-16T02:37:55.434Z,7.79
2019-05-16T02:38:55.536Z,7.77
2019-05-16T02:39:54.480Z,7.79
2019-05-16T02:40:55.215Z,7.77
2019-05-16T02:41:52.198Z,7.79
2019-05-16T02:42:55.842Z,7.87
2019-05-16T02:43:52.149Z,7.84
2019-05-16T02:44:52.137Z,7.81
2019-05-16T02:45:52.319Z,7.79
2019-05-16T02:46:52.169Z,7.84
2019-05-16T02:47:52.105Z,7.79
2019-05-16T02:48:52.203Z,7.81
2019-05-16T02:49:52.084Z,7.85
2019-05-16T02:50:52.073Z,7.85
2019-05-16T02:51:52.131Z,7.85
2019-05-16T02:52:52.181Z,7.79
2019-05-16T02:53:52.070Z,7.84
2019-05-16T02:54:52.141Z,7.84
2019-05-16T02:55:52.261Z,7.90
2019-05-16T02:56:52.043Z,7.85
2019-05-16T02:57:52.001Z,7.84
2019-05-16T02:58:52.422Z,7.82
2019-05-16T02:59:51.984Z,7.82
2019-05-16T03:00:51.992Z,7.84
2019-05-16T03:01:52.421Z,7.85
2019-05-16T03:02:51.948Z,7.85
2019-05-16T03:03:52.114Z,7.87
2019-05-16T03:04:52.067Z,7.89
2019-05-16T03:05:51.915Z,7.85
2019-05-16T03:06:51.902Z,7.84
2019-05-16T03:07:52.350Z,7.82
2019-05-16T03:08:51.882Z,7.79
2019-05-16T03:09:51.877Z,7.87
2019-05-16T03:10:52.317Z,7.84
2019-05-16T03:11:51.852Z,7.84
2019-05-16T03:12:51.859Z,7.85
2019-05-16T03:13:51.831Z,7.79
2019-05-16T03:14:54.638Z,7.69
2019-05-16T03:15:51.824Z,7.85
2019-05-16T03:16:51.814Z,7.77
2019-05-16T03:17:51.822Z,7.77
2019-05-16T03:18:51.821Z,7.82
2019-05-16T03:19:51.774Z,7.77
2019-05-16T03:20:51.758Z,7.72
2019-05-16T03:21:51.753Z,7.84
2019-05-16T03:22:52.109Z,7.74
2019-05-16T03:23:51.757Z,7.74
2019-05-16T03:24:51.724Z,7.81
2019-05-16T03:25:51.724Z,7.74
2019-05-16T03:26:51.693Z,7.75
2019-05-16T03:27:51.700Z,7.69
2019-05-16T03:28:52.354Z,7.74
2019-05-16T03:29:51.663Z,7.69
2019-05-16T03:30:54.466Z,7.69
2019-05-16T03:31:54.233Z,7.72
2019-05-16T03:32:54.840Z,7.69
2019-05-16T03:33:58.809Z,7.71
2019-05-16T03:34:54.898Z,7.66
2019-05-16T03:35:54.726Z,7.66
2019-05-16T03:36:54.362Z,7.63
2019-05-16T03:37:59.624Z,7.62
2019-05-16T03:38:52.586Z,7.66
2019-05-16T03:39:51.640Z,7.62
2019-05-16T03:40:51.566Z,7.62
2019-05-16T03:41:51.539Z,7.67
2019-05-16T03:42:51.875Z,7.60
2019-05-16T03:43:51.532Z,7.63
2019-05-16T03:44:53.141Z,7.62
2019-05-16T03:45:52.442Z,7.66
2019-05-16T03:46:51.942Z,7.67
2019-05-16T03:47:51.489Z,7.72
2019-05-16T03:48:52.205Z,7.63
2019-05-16T03:49:51.888Z,7.63
2019-05-16T03:50:51.461Z,7.67
2019-05-16T03:51:51.457Z,7.71
2019-05-16T03:52:51.446Z,7.71
2019-05-16T03:53:51.458Z,7.69
2019-05-16T03:54:51.422Z,7.71
2019-05-16T03:55:52.031Z,7.72
2019-05-16T03:56:51.542Z,7.72
2019-05-16T03:57:51.703Z,7.77
2019-05-16T03:58:51.372Z,7.74
2019-05-16T03:59:51.876Z,7.77
2019-05-16T04:00:53.177Z,7.81
2019-05-16T04:01:51.358Z,7.79
2019-05-16T04:02:52.305Z,7.82
2019-05-16T04:03:51.655Z,7.79
2019-05-16T04:04:51.387Z,7.82
2019-05-16T04:05:52.557Z,7.84
2019-05-16T04:06:51.272Z,7.82
2019-05-16T04:07:56.775Z,7.85
2019-05-16T04:08:52.263Z,7.85
2019-05-16T04:09:51.244Z,7.84
2019-05-16T04:10:52.060Z,7.87
2019-05-16T04:11:51.222Z,7.84
2019-05-16T04:12:51.426Z,7.90
2019-05-16T04:13:51.207Z,7.82
2019-05-16T04:14:51.465Z,7.79
2019-05-16T04:15:52.402Z,7.87
2019-05-16T04:16:51.303Z,7.82
2019-05-16T04:17:51.446Z,7.94
2019-05-16T04:18:51.559Z,7.81
2019-05-16T04:19:51.150Z,7.90
2019-05-16T04:20:52.368Z,7.89
2019-05-16T04:21:51.364Z,7.93
2019-05-16T04:22:51.464Z,7.89
2019-05-16T04:23:51.122Z,7.99
2019-05-16T04:24:51.433Z,7.90
2019-05-16T04:25:52.994Z,7.90
2019-05-16T04:26:51.840Z,7.90
2019-05-16T04:27:51.130Z,7.85
2019-05-16T04:28:51.558Z,7.93
2019-05-16T04:29:51.539Z,7.90
2019-05-16T04:30:51.109Z,7.99
2019-05-16T04:31:51.136Z,8.03
2019-05-16T04:32:51.270Z,8.02
2019-05-16T04:33:51.822Z,7.97
2019-05-16T04:34:51.322Z,8.00
2019-05-16T04:35:52.652Z,8.02
2019-05-16T04:36:51.687Z,8.04
2019-05-16T04:37:51.404Z,8.10
2019-05-16T04:38:51.372Z,8.11
2019-05-16T04:39:50.936Z,8.15
2019-05-16T04:40:51.766Z,8.15
2019-05-16T04:41:51.143Z,8.28
2019-05-16T04:42:51.455Z,8.20
2019-05-16T04:43:51.021Z,8.22
2019-05-16T04:44:51.713Z,8.20
2019-05-16T04:45:52.269Z,8.25
2019-05-16T04:46:51.349Z,8.21
2019-05-16T04:47:51.410Z,8.20
2019-05-16T04:48:51.102Z,8.26
2019-05-16T04:49:51.972Z,8.28
2019-05-16T04:50:51.888Z,8.17
2019-05-16T04:51:51.637Z,8.20
2019-05-16T04:52:51.753Z,8.25
2019-05-16T04:53:51.095Z,8.25
2019-05-16T04:54:51.342Z,8.20
2019-05-16T04:55:51.818Z,8.20
2019-05-16T04:56:51.298Z,8.21
2019-05-16T04:57:51.283Z,8.26
2019-05-16T04:58:51.395Z,8.18
2019-05-16T04:59:51.036Z,8.17
2019-05-16T05:00:51.762Z,8.25
2019-05-16T05:01:51.301Z,8.17
2019-05-16T05:02:51.858Z,8.15
2019-05-16T05:04:02.090Z,8.21
2019-05-16T05:04:51.686Z,8.21
2019-05-16T05:05:51.696Z,8.21
2019-05-16T05:06:51.319Z,8.22
2019-05-16T05:07:51.249Z,8.22
2019-05-16T05:08:58.413Z,8.17
2019-05-16T05:09:51.632Z,8.26
2019-05-16T05:10:51.423Z,8.22
2019-05-16T05:11:52.006Z,8.22
2019-05-16T05:12:51.619Z,8.29
2019-05-16T05:13:50.795Z,8.26
2019-05-16T05:14:51.157Z,8.28
2019-05-16T05:15:51.075Z,8.35
2019-05-16T05:16:50.818Z,8.35
2019-05-16T05:17:50.536Z,8.33
2019-05-16T05:18:51.510Z,8.37
2019-05-16T05:19:50.831Z,8.39
2019-05-16T05:20:52.303Z,8.44
2019-05-16T05:21:51.487Z,8.48
2019-05-16T05:22:50.471Z,8.39
2019-05-16T05:23:50.974Z,8.44
2019-05-16T05:24:50.860Z,8.45
2019-05-16T05:25:51.472Z,8.53
2019-05-16T05:26:50.512Z,8.51
2019-05-16T05:27:50.420Z,8.58
2019-05-16T05:28:50.910Z,8.62
2019-05-16T05:29:50.426Z,8.65
2019-05-16T05:30:50.756Z,8.57
2019-05-16T05:31:54.850Z,8.73
2019-05-16T05:32:51.379Z,8.73
2019-05-16T05:33:50.815Z,8.69
2019-05-16T05:34:50.500Z,8.71
2019-05-16T05:35:51.026Z,8.78
2019-05-16T05:36:51.153Z,8.79
2019-05-16T05:37:50.881Z,8.78
2019-05-16T05:39:06.292Z,8.81
2019-05-16T05:39:51.340Z,8.87
2019-05-16T05:40:51.075Z,8.83
2019-05-16T05:41:50.538Z,8.81
2019-05-16T05:42:50.587Z,8.91
2019-05-16T05:43:50.504Z,8.79
2019-05-16T05:44:50.793Z,9.02
2019-05-16T05:45:51.237Z,8.94
2019-05-16T05:46:51.173Z,9.02
2019-05-16T05:47:50.649Z,9.13
2019-05-16T05:48:50.695Z,9.06
2019-05-16T05:49:50.182Z,9.06
2019-05-16T05:50:50.845Z,9.23
2019-05-16T05:51:50.238Z,9.21
2019-05-16T05:52:51.127Z,9.27
2019-05-16T05:53:50.972Z,9.31
2019-05-16T05:54:50.365Z,9.42
2019-05-16T05:55:51.564Z,9.40
2019-05-16T05:56:50.292Z,9.49
2019-05-16T05:57:50.647Z,9.53
2019-05-16T05:58:51.239Z,9.48
2019-05-16T05:59:50.129Z,9.49
2019-05-16T06:00:51.942Z,9.61
2019-05-16T06:01:51.659Z,9.57
2019-05-16T06:02:50.782Z,9.63
2019-05-16T06:03:50.646Z,9.66
2019-05-16T06:04:50.273Z,9.78
2019-05-16T06:05:50.614Z,9.81
2019-05-16T06:06:50.470Z,9.85
2019-05-16T06:07:51.003Z,9.86
2019-05-16T06:08:50.318Z,9.89
2019-05-16T06:09:55.579Z,9.89
2019-05-16T06:10:50.974Z,10.01
2019-05-16T06:11:50.279Z,10.09
2019-05-16T06:12:50.281Z,10.07
2019-05-16T06:13:50.223Z,10.18
2019-05-16T06:14:50.445Z,10.24
2019-05-16T06:15:51.116Z,10.33
2019-05-16T06:16:50.835Z,10.33
2019-05-16T06:17:50.926Z,10.40
2019-05-16T06:18:50.415Z,10.40
2019-05-16T06:19:49.956Z,10.47
2019-05-16T06:20:51.287Z,10.52
2019-05-16T06:21:50.413Z,10.47
2019-05-16T06:22:50.968Z,10.56
2019-05-16T06:23:50.825Z,10.51
2019-05-16T06:24:50.474Z,10.59
2019-05-16T06:25:50.802Z,10.53
2019-05-16T06:26:50.456Z,10.56
2019-05-16T06:27:51.210Z,10.70
2019-05-16T06:28:50.455Z,10.52
2019-05-16T06:29:49.813Z,10.62
2019-05-16T06:30:51.438Z,10.62
2019-05-16T06:31:49.813Z,10.73
2019-05-16T06:32:50.193Z,10.74
2019-05-16T06:33:50.220Z,10.86
2019-05-16T06:34:50.790Z,10.84
2019-05-16T06:35:51.455Z,10.94
2019-05-16T06:36:50.969Z,10.96
2019-05-16T06:37:50.046Z,11.01
2019-05-16T06:38:49.938Z,11.07
2019-05-16T06:39:50.275Z,11.03
2019-05-16T06:40:52.208Z,11.19
2019-05-16T06:41:50.884Z,11.29
2019-05-16T06:42:51.047Z,11.28
2019-05-16T06:43:50.666Z,11.31
2019-05-16T06:44:50.359Z,11.35
2019-05-16T06:45:51.435Z,11.28
2019-05-16T06:47:00.524Z,11.46
2019-05-16T06:47:50.593Z,11.38
2019-05-16T06:48:50.583Z,11.52
2019-05-16T06:49:50.998Z,11.49
2019-05-16T06:50:51.494Z,11.56
2019-05-16T06:51:51.490Z,11.56
2019-05-16T06:52:50.235Z,11.53
2019-05-16T06:53:50.082Z,11.50
2019-05-16T06:54:50.413Z,11.56
2019-05-16T06:55:49.883Z,11.62
2019-05-16T06:56:50.953Z,11.70
2019-05-16T06:57:50.373Z,11.68
2019-05-16T06:58:52.047Z,11.75
2019-05-16T06:59:49.990Z,11.78
2019-05-16T07:00:52.115Z,11.71
2019-05-16T07:01:50.081Z,11.65
2019-05-16T07:02:50.140Z,11.67
2019-05-16T07:03:50.767Z,11.70
2019-05-16T07:04:50.632Z,11.70
2019-05-16T07:05:50.418Z,11.77
2019-05-16T07:06:58.741Z,11.67
2019-05-16T07:07:50.895Z,11.61
2019-05-16T07:08:50.687Z,11.65
2019-05-16T07:09:59.907Z,11.61
2019-05-16T07:10:50.983Z,11.68
2019-05-16T07:11:50.423Z,11.67
2019-05-16T07:12:50.440Z,11.74
2019-05-16T07:13:51.951Z,11.72
2019-05-16T07:14:50.527Z,11.71
2019-05-16T07:15:50.162Z,11.77
2019-05-16T07:16:49.731Z,11.87
2019-05-16T07:17:50.673Z,11.93
2019-05-16T07:18:50.615Z,11.94
2019-05-16T07:19:50.219Z,11.94
2019-05-16T07:20:51.035Z,12.08
2019-05-16T07:21:50.882Z,12.09
2019-05-16T07:22:50.288Z,12.05
2019-05-16T07:23:51.213Z,12.15
2019-05-16T07:24:50.433Z,12.21
2019-05-16T07:25:50.463Z,12.19
2019-05-16T07:26:50.054Z,12.24
2019-05-16T07:27:50.986Z,12.16
2019-05-16T07:28:51.527Z,12.09
2019-05-16T07:29:50.814Z,12.13
2019-05-16T07:30:49.997Z,12.12
2019-05-16T07:31:52.055Z,12.20
2019-05-16T07:32:49.948Z,12.15
2019-05-16T07:33:50.230Z,12.19
2019-05-16T07:34:49.834Z,12.15
2019-05-16T07:35:51.321Z,12.33
2019-05-16T07:36:50.180Z,12.29
2019-05-16T07:37:50.027Z,12.30
2019-05-16T07:38:50.692Z,12.39
2019-05-16T07:39:51.068Z,12.42
2019-05-16T07:40:51.085Z,12.37
2019-05-16T07:41:50.899Z,12.41
2019-05-16T07:42:50.971Z,12.45
2019-05-16T07:43:50.513Z,12.51
2019-05-16T07:44:50.549Z,12.49
2019-05-16T07:45:51.213Z,12.49
2019-05-16T07:46:51.603Z,12.51
2019-05-16T07:47:50.988Z,12.42
2019-05-16T07:48:51.887Z,12.41
2019-05-16T07:49:50.164Z,12.29
2019-05-16T07:50:50.054Z,12.19
2019-05-16T07:51:49.870Z,12.31
2019-05-16T07:52:51.094Z,12.29
2019-05-16T07:53:50.534Z,12.34
2019-05-16T07:54:50.687Z,12.49
2019-05-16T07:55:50.886Z,12.45
2019-05-16T07:56:57.215Z,12.49
2019-05-16T07:57:50.620Z,12.51
2019-05-16T07:58:50.709Z,12.52
2019-05-16T07:59:50.696Z,12.62
2019-05-16T08:00:57.883Z,12.46
2019-05-16T08:01:53.698Z,12.62
2019-05-16T08:02:50.618Z,12.64
2019-05-16T08:03:50.939Z,12.67
2019-05-16T08:04:50.151Z,12.63
2019-05-16T08:05:51.250Z,12.67
2019-05-16T08:06:50.222Z,12.77
2019-05-16T08:07:50.851Z,12.81
2019-05-16T08:08:50.855Z,12.75
2019-05-16T08:09:50.513Z,12.92
2019-05-16T08:10:50.954Z,12.95
2019-05-16T08:11:50.175Z,12.85
2019-05-16T08:12:51.090Z,12.85
2019-05-16T08:13:50.788Z,12.95
2019-05-16T08:14:50.178Z,12.85
2019-05-16T08:15:50.404Z,12.97
2019-05-16T08:16:50.140Z,13.02
2019-05-16T08:17:51.264Z,13.02
2019-05-16T08:18:50.649Z,12.97
2019-05-16T08:19:50.685Z,13.03
2019-05-16T08:20:52.372Z,13.09
2019-05-16T08:21:50.513Z,13.02
2019-05-16T08:22:50.747Z,13.03
2019-05-16T08:23:50.341Z,13.04
2019-05-16T08:24:50.580Z,13.17
2019-05-16T08:25:50.791Z,13.07
2019-05-16T08:26:51.315Z,13.09
2019-05-16T08:27:51.713Z,13.12
2019-05-16T08:28:50.300Z,13.12
2019-05-16T08:29:51.097Z,13.04
2019-05-16T08:30:56.034Z,12.93
2019-05-16T08:31:48.467Z,13.00
2019-05-16T08:32:52.415Z,12.99
2019-05-16T08:33:52.168Z,13.11
2019-05-16T08:34:51.415Z,13.00
2019-05-16T08:35:51.486Z,13.06
2019-05-16T08:36:51.685Z,13.03
2019-05-16T08:37:51.231Z,13.06
2019-05-16T08:38:51.234Z,13.04
2019-05-16T08:39:51.001Z,13.17
2019-05-16T08:41:06.480Z,13.15
2019-05-16T08:41:51.895Z,13.25
2019-05-16T08:42:51.594Z,13.18
2019-05-16T08:43:52.570Z,13.18
2019-05-16T08:44:51.765Z,13.17
2019-05-16T08:45:50.834Z,13.36
2019-05-16T08:46:54.676Z,13.24
2019-05-16T08:47:52.598Z,13.36
2019-05-16T08:48:53.332Z,13.30
2019-05-16T08:49:52.138Z,13.37
2019-05-16T08:50:53.872Z,13.40
2019-05-16T08:51:52.905Z,13.33
2019-05-16T08:52:52.358Z,13.41
2019-05-16T08:53:50.542Z,13.44
2019-05-16T08:54:51.126Z,13.43
2019-05-16T08:55:50.587Z,13.43
2019-05-16T08:56:51.087Z,13.30
2019-05-16T08:57:52.518Z,13.41
2019-05-16T08:58:53.331Z,13.41
2019-05-16T08:59:52.358Z,13.37
2019-05-16T09:00:54.702Z,13.29
2019-05-16T09:02:52.062Z,13.24
2019-05-16T09:03:51.652Z,13.27
2019-05-16T09:04:53.101Z,13.25
2019-05-16T09:05:53.001Z,13.18
2019-05-16T09:06:52.421Z,13.15
2019-05-16T09:07:48.085Z,13.04
2019-05-16T09:08:48.074Z,12.96
2019-05-16T09:09:51.175Z,12.85
2019-05-16T09:10:35.912Z,13.30
2019-05-16T09:10:59.791Z,12.70
2019-05-16T09:11:49.040Z,12.81
2019-05-16T09:12:48.032Z,12.66
2019-05-16T09:13:48.020Z,12.70
2019-05-16T09:14:48.195Z,12.64
2019-05-16T09:15:48.322Z,12.49
2019-05-16T09:16:48.075Z,12.38
2019-05-16T09:17:47.977Z,12.30
2019-05-16T09:18:50.736Z,12.21
2019-05-16T09:19:47.957Z,12.16
2019-05-16T09:20:50.301Z,12.26
2019-05-16T09:21:47.946Z,12.26
2019-05-16T09:22:48.237Z,12.16
2019-05-16T09:23:47.914Z,12.09
2019-05-16T09:24:48.321Z,12.08
2019-05-16T09:25:48.738Z,12.09
2019-05-16T09:26:47.892Z,12.09
2019-05-16T09:27:47.872Z,12.09
2019-05-16T09:28:48.331Z,12.04
2019-05-16T09:29:47.883Z,12.05
2019-05-16T09:30:47.871Z,12.08
2019-05-16T09:32:07.337Z,12.11
2019-05-16T09:32:48.823Z,12.23
2019-05-16T09:33:47.807Z,12.21
2019-05-16T09:34:48.127Z,12.19
2019-05-16T09:35:48.027Z,12.16
2019-05-16T09:36:48.275Z,12.21
2019-05-16T09:37:47.768Z,12.16
2019-05-16T09:38:48.652Z,12.27
2019-05-16T09:39:48.204Z,12.15
2019-05-16T09:40:48.201Z,12.21
2019-05-16T09:41:54.474Z,12.13
2019-05-16T09:42:48.732Z,12.12
2019-05-16T09:43:52.327Z,12.27
2019-05-16T09:44:47.939Z,12.27
2019-05-16T09:45:47.696Z,12.19
2019-05-16T09:46:47.724Z,12.26
2019-05-16T09:47:48.682Z,12.29
2019-05-16T09:48:48.070Z,12.41
2019-05-16T09:49:47.809Z,12.51
2019-05-16T09:50:47.627Z,12.60
2019-05-16T09:51:47.637Z,12.64
2019-05-16T09:52:47.607Z,12.77
2019-05-16T09:53:47.598Z,12.81
2019-05-16T09:54:47.586Z,12.78
2019-05-16T09:55:47.586Z,12.87
2019-05-16T09:56:47.594Z,12.85
2019-05-16T09:57:47.566Z,12.85
2019-05-16T09:58:47.548Z,12.84
2019-05-16T09:59:47.533Z,12.82
2019-05-16T10:00:47.700Z,12.89
2019-05-16T10:01:47.998Z,12.74
2019-05-16T10:02:49.281Z,12.79
2019-05-16T10:03:47.965Z,12.81
2019-05-16T10:04:47.630Z,12.95
2019-05-16T10:05:47.495Z,13.04
2019-05-16T10:06:47.579Z,13.29
2019-05-16T10:07:47.478Z,13.24
2019-05-16T10:08:47.454Z,13.29
2019-05-16T10:09:50.281Z,13.44
2019-05-16T10:10:47.421Z,13.44
2019-05-16T10:11:50.908Z,13.61
2019-05-16T10:12:48.415Z,13.74
2019-05-16T10:13:47.432Z,13.92
2019-05-16T10:14:47.394Z,14.01
2019-05-16T10:15:47.528Z,14.10
2019-05-16T10:16:47.887Z,14.14
2019-05-16T10:17:47.765Z,14.37
2019-05-16T10:18:47.733Z,14.52
2019-05-16T10:19:47.705Z,14.43
2019-05-16T10:20:47.312Z,14.32
2019-05-16T10:21:47.303Z,14.42
2019-05-16T10:22:50.549Z,14.35
2019-05-16T10:23:47.300Z,14.37
2019-05-16T10:24:47.282Z,14.34
2019-05-16T10:25:48.065Z,14.31
2019-05-16T10:26:52.928Z,14.29
2019-05-16T10:27:48.237Z,14.20
2019-05-16T10:28:47.249Z,14.21
2019-05-16T10:29:48.483Z,14.17
2019-05-16T10:30:50.142Z,14.17
2019-05-16T10:31:52.797Z,14.14
2019-05-16T10:32:48.188Z,14.04
2019-05-16T10:33:47.675Z,14.07
2019-05-16T10:34:47.171Z,14.07
2019-05-16T10:35:47.983Z,14.17
2019-05-16T10:36:47.345Z,14.32
2019-05-16T10:37:47.192Z,14.35
2019-05-16T10:38:48.456Z,14.47
2019-05-16T10:39:47.139Z,14.57
2019-05-16T10:40:47.617Z,14.54
2019-05-16T10:41:47.099Z,14.54
2019-05-16T10:42:47.339Z,14.39
2019-05-16T10:43:47.561Z,14.39
2019-05-16T10:44:48.331Z,14.60
2019-05-16T10:45:47.052Z,14.57
2019-05-16T10:46:47.924Z,14.57
2019-05-16T10:47:48.133Z,14.71
2019-05-16T10:48:47.126Z,14.81
2019-05-16T10:49:47.656Z,15.05
2019-05-16T10:50:47.800Z,15.21
2019-05-16T10:51:47.173Z,15.39
2019-05-16T10:52:51.908Z,15.46
2019-05-16T10:54:12.599Z,15.42
2019-05-16T10:54:57.433Z,15.46
2019-05-16T10:55:47.945Z,15.56
2019-05-16T10:56:47.053Z,15.57
2019-05-16T10:57:47.726Z,15.54
2019-05-16T10:59:05.022Z,15.51
2019-05-16T11:00:06.733Z,15.54
2019-05-16T11:01:11.140Z,15.54
2019-05-16T11:01:47.879Z,15.66
2019-05-16T11:02:46.892Z,15.67
2019-05-16T11:03:49.104Z,15.49
2019-05-16T11:04:57.330Z,15.48
2019-05-16T11:06:01.639Z,15.64
2019-05-16T11:06:47.833Z,15.66
2019-05-16T11:07:48.545Z,15.63
2019-05-16T11:08:46.807Z,15.57
2019-05-16T11:09:55.697Z,15.66
2019-05-16T11:10:47.832Z,15.74
2019-05-16T11:11:47.561Z,15.76
2019-05-16T11:12:51.854Z,15.61
2019-05-16T11:13:50.923Z,15.67
2019-05-16T11:14:47.810Z,15.61
2019-05-16T11:15:46.733Z,15.54
2019-05-16T11:16:47.422Z,15.49
2019-05-16T11:17:46.709Z,15.60
2019-05-16T11:18:46.694Z,15.60
2019-05-16T11:19:46.706Z,15.75
2019-05-16T11:20:49.307Z,15.74
2019-05-16T11:21:46.976Z,15.88
2019-05-16T11:22:47.707Z,16.01
2019-05-16T11:23:47.132Z,16.07
2019-05-16T11:24:47.118Z,16.16
2019-05-16T11:25:47.195Z,16.31
2019-05-16T11:26:47.386Z,16.53
2019-05-16T11:27:46.957Z,16.60
2019-05-16T11:28:48.461Z,16.71
2019-05-16T11:29:47.278Z,16.75
2019-05-16T11:30:47.627Z,16.78
2019-05-16T11:31:46.907Z,16.95
2019-05-16T11:32:46.985Z,16.96
2019-05-16T11:33:47.754Z,17.11
2019-05-16T11:34:47.968Z,17.20
2019-05-16T11:35:47.592Z,17.28
2019-05-16T11:36:47.809Z,17.33
2019-05-16T11:37:47.147Z,17.38
2019-05-16T11:38:47.518Z,17.43
2019-05-16T11:39:46.681Z,17.51
2019-05-16T11:40:47.542Z,17.62
2019-05-16T11:41:47.560Z,17.41
2019-05-16T11:42:47.322Z,17.41
2019-05-16T11:43:47.538Z,17.48
2019-05-16T11:44:47.846Z,17.43
2019-05-16T11:45:46.928Z,17.26
2019-05-16T11:46:49.194Z,17.26
2019-05-16T11:47:47.110Z,17.36
2019-05-16T11:48:48.642Z,17.35
2019-05-16T11:49:47.649Z,17.46
2019-05-16T11:50:48.070Z,17.44
2019-05-16T11:51:47.182Z,17.50
2019-05-16T11:52:47.680Z,17.51
2019-05-16T11:53:47.697Z,17.50
2019-05-16T11:54:46.892Z,17.48
2019-05-16T11:55:54.398Z,17.57
2019-05-16T11:56:47.286Z,17.55
2019-05-16T11:57:47.556Z,17.66
2019-05-16T11:58:47.294Z,17.78
2019-05-16T11:59:47.079Z,17.59
2019-05-16T12:00:48.154Z,17.35
2019-05-16T12:01:47.410Z,17.18
2019-05-16T12:02:47.840Z,17.29
2019-05-16T12:03:46.767Z,17.41
2019-05-16T12:04:47.211Z,17.40
2019-05-16T12:05:48.212Z,17.50
2019-05-16T12:06:46.849Z,17.40
2019-05-16T12:07:48.352Z,17.35
2019-05-16T12:08:46.726Z,17.41
2019-05-16T12:09:50.044Z,17.44
2019-05-16T12:10:47.452Z,17.46
2019-05-16T12:11:46.182Z,17.59
2019-05-16T12:12:46.148Z,17.63
2019-05-16T12:13:47.615Z,17.67
2019-05-16T12:14:46.094Z,17.59
2019-05-16T12:15:46.083Z,17.54
2019-05-16T12:16:47.219Z,17.64
2019-05-16T12:18:00.367Z,17.67
2019-05-16T12:18:47.049Z,17.63
2019-05-16T12:19:48.222Z,17.79
2019-05-16T12:20:46.101Z,17.81
2019-05-16T12:21:46.017Z,17.70
2019-05-16T12:22:46.029Z,17.73
2019-05-16T12:23:47.318Z,17.92
2019-05-16T12:24:47.755Z,17.95
2019-05-16T12:25:47.512Z,17.99
2019-05-16T12:26:47.950Z,18.02
2019-05-16T12:27:48.092Z,17.95
2019-05-16T12:28:45.959Z,18.07
2019-05-16T12:29:50.255Z,18.18
2019-05-16T12:30:47.126Z,18.19
2019-05-16T12:31:55.411Z,18.18
2019-05-16T12:32:47.134Z,18.25
2019-05-16T12:33:47.813Z,18.24
2019-05-16T12:34:46.352Z,18.18
2019-05-16T12:35:47.419Z,17.92
2019-05-16T12:36:47.295Z,17.92
2019-05-16T12:37:48.001Z,17.95
2019-05-16T12:38:46.729Z,17.94
2019-05-16T12:39:47.034Z,17.97
2019-05-16T12:40:47.985Z,18.07
2019-05-16T12:41:49.093Z,18.27
2019-05-16T12:42:47.200Z,18.54
2019-05-16T12:43:53.158Z,18.70
2019-05-16T12:44:46.953Z,18.83
2019-05-16T12:45:47.300Z,18.99
2019-05-16T12:46:47.461Z,18.94
2019-05-16T12:47:47.301Z,18.82
2019-05-16T12:48:47.372Z,18.79
2019-05-16T12:49:47.260Z,18.79
2019-05-16T12:50:48.061Z,18.83
2019-05-16T12:51:46.556Z,18.83
2019-05-16T12:52:47.366Z,18.84
2019-05-16T12:53:47.824Z,18.67
2019-05-16T12:54:47.542Z,18.62
2019-05-16T12:55:47.662Z,18.54
2019-05-16T12:56:48.224Z,18.57
2019-05-16T12:57:48.484Z,18.54
2019-05-16T12:58:47.276Z,18.65
2019-05-16T12:59:51.918Z,18.61
2019-05-16T13:00:54.211Z,18.68
2019-05-16T13:01:48.139Z,18.61
2019-05-16T13:02:47.392Z,18.76
2019-05-16T13:03:48.053Z,18.65
2019-05-16T13:04:47.118Z,18.52